createdAt,value
2019-02-26T00:01:16.361Z,102369.37
2019-02-26T00:03:45.620Z,102359.72
2019-02-26T00:06:16.144Z,102357.98
2019-02-26T00:08:49.248Z,102364.03
2019-02-26T00:11:18.137Z,102372.78
2019-02-26T00:13:49.843Z,102366.27
2019-02-26T00:16:20.552Z,102358.39
2019-02-26T00:18:50.669Z,102354.05
2019-02-26T00:21:22.217Z,102331.25
2019-02-26T00:23:53.168Z,102330.41
2019-02-26T00:26:23.066Z,102326.44
2019-02-26T00:28:52.866Z,102315.08
2019-02-26T00:31:24.310Z,102312.88
2019-02-26T00:33:54.252Z,102310.21
2019-02-26T00:36:27.024Z,102306.62
2019-02-26T00:38:58.391Z,102300.08
2019-02-26T00:41:29.067Z,102311.82
2019-02-26T00:43:59.950Z,102314.02
2019-02-26T00:46:32.515Z,102309.59
2019-02-26T00:49:05.162Z,102303.02
2019-02-26T00:51:33.866Z,102299.08
2019-02-26T00:54:04.145Z,102292.52
2019-02-26T00:56:36.375Z,102296.89
2019-02-26T00:59:06.217Z,102282.00
2019-02-26T01:01:35.984Z,102273.14
2019-02-26T01:04:05.788Z,102282.75
2019-02-26T01:06:35.559Z,102291.05
2019-02-26T01:09:11.226Z,102291.03
2019-02-26T01:11:40.307Z,102294.49
2019-02-26T01:14:10.142Z,102279.16
2019-02-26T01:16:41.584Z,102275.71
2019-02-26T01:19:13.534Z,102272.64
2019-02-26T01:21:44.262Z,102270.47
2019-02-26T01:24:16.156Z,102263.41
2019-02-26T01:26:46.004Z,102262.98
2019-02-26T01:29:18.560Z,102254.18
2019-02-26T01:31:47.255Z,102252.02
2019-02-26T01:34:18.062Z,102240.62
2019-02-26T01:36:49.567Z,102234.48
2019-02-26T01:39:21.559Z,102225.73
2019-02-26T01:41:53.326Z,102226.14
2019-02-26T01:44:22.522Z,102218.67
2019-02-26T01:46:53.422Z,102226.09
2019-02-26T01:49:25.877Z,102233.01
2019-02-26T01:51:55.450Z,102232.53
2019-02-26T01:54:25.237Z,102227.69
2019-02-26T01:56:55.009Z,102219.34
2019-02-26T01:59:26.571Z,102217.58
2019-02-26T02:01:56.389Z,102218.48
2019-02-26T02:04:26.179Z,102211.94
2019-02-26T02:06:58.879Z,102197.91
2019-02-26T02:09:28.284Z,102191.38
2019-02-26T02:11:59.925Z,102188.75
2019-02-26T02:14:29.651Z,102185.23
2019-02-26T02:17:01.675Z,102171.64
2019-02-26T02:19:32.699Z,102169.02
2019-02-26T02:22:02.492Z,102165.98
2019-02-26T02:24:33.842Z,102157.61
2019-02-26T02:27:03.645Z,102154.97
2019-02-26T02:29:33.436Z,102155.83
2019-02-26T02:32:04.984Z,102149.67
2019-02-26T02:34:36.576Z,102147.03
2019-02-26T02:37:06.179Z,102150.45
2019-02-26T02:39:37.690Z,102149.58
2019-02-26T02:42:08.366Z,102154.37
2019-02-26T02:44:42.367Z,102163.92
2019-02-26T02:47:12.165Z,102173.50
2019-02-26T02:49:44.368Z,102157.77
2019-02-26T02:52:14.591Z,102138.04
2019-02-26T02:54:47.016Z,102141.57
2019-02-26T02:57:15.852Z,102158.13
2019-02-26T02:59:45.643Z,102172.45
2019-02-26T03:02:17.623Z,102184.62
2019-02-26T03:04:46.991Z,102177.25
2019-02-26T03:07:18.056Z,102178.55
2019-02-26T03:09:48.222Z,102171.06
2019-02-26T03:12:17.990Z,102178.95
2019-02-26T03:14:50.820Z,102178.08
2019-02-26T03:17:20.596Z,102177.19
2019-02-26T03:19:50.484Z,102174.06
2019-02-26T03:22:21.570Z,102177.13
2019-02-26T03:24:53.815Z,102178.05
2019-02-26T03:27:23.142Z,102167.91
2019-02-26T03:29:55.586Z,102172.22
2019-02-26T03:32:24.425Z,102166.97
2019-02-26T03:34:54.242Z,102170.45
2019-02-26T03:37:25.830Z,102166.86
2019-02-26T03:39:57.402Z,102155.47
2019-02-26T03:42:27.026Z,102155.41
2019-02-26T03:44:56.828Z,102169.36
2019-02-26T03:47:26.606Z,102186.39
2019-02-26T03:49:56.383Z,102215.62
2019-02-26T03:52:26.157Z,102237.91
2019-02-26T03:54:55.899Z,102225.23
2019-02-26T03:57:25.689Z,102217.91
2019-02-26T03:59:55.450Z,102216.59
2019-02-26T04:02:25.205Z,102208.38
2019-02-26T04:04:57.114Z,102200.42
2019-02-26T04:07:35.964Z,102195.70
2019-02-26T04:10:09.306Z,102190.44
2019-02-26T04:12:45.064Z,102195.61
2019-02-26T04:15:17.083Z,102196.95
2019-02-26T04:17:47.222Z,102216.11
2019-02-26T04:20:17.015Z,102222.59
2019-02-26T04:22:50.018Z,102234.31
2019-02-26T04:25:29.995Z,102245.77
2019-02-26T04:28:08.687Z,102237.42
2019-02-26T04:31:02.596Z,102221.19
2019-02-26T04:33:58.911Z,102235.59
2019-02-26T04:36:37.835Z,102222.47
2019-02-26T04:39:22.116Z,102224.69
2019-02-26T04:41:57.150Z,102220.66
2019-02-26T04:44:50.080Z,102204.86
2019-02-26T04:47:21.977Z,102183.42
2019-02-26T04:49:51.041Z,102194.23
2019-02-26T04:52:20.778Z,102194.65
2019-02-26T04:54:50.590Z,102206.95
2019-02-26T04:57:20.317Z,102205.55
2019-02-26T04:59:50.089Z,102206.46
2019-02-26T05:02:19.863Z,102217.33
2019-02-26T05:04:49.605Z,102228.58
2019-02-26T05:07:19.493Z,102238.12
2019-02-26T05:09:51.143Z,102247.68
2019-02-26T05:12:20.725Z,102257.27
2019-02-26T05:14:50.498Z,102262.98
2019-02-26T05:17:23.456Z,102262.07
2019-02-26T05:19:51.940Z,102269.92
2019-02-26T05:22:22.855Z,102278.09
2019-02-26T05:24:53.209Z,102272.86
2019-02-26T05:27:24.970Z,102267.20
2019-02-26T05:29:54.887Z,102276.47
2019-02-26T05:32:27.331Z,102272.96
2019-02-26T05:34:56.362Z,102258.56
2019-02-26T05:37:28.856Z,102251.56
2019-02-26T05:39:57.646Z,102269.00
2019-02-26T05:42:27.560Z,102282.66
2019-02-26T05:44:59.840Z,102279.50
2019-02-26T05:47:30.277Z,102290.94
2019-02-26T05:50:02.567Z,102297.94
2019-02-26T05:52:33.142Z,102296.63
2019-02-26T05:55:02.944Z,102298.78
2019-02-26T05:57:32.913Z,102296.98
2019-02-26T06:00:02.771Z,102291.39
2019-02-26T06:02:32.484Z,102284.43
2019-02-26T06:05:02.227Z,102288.81
2019-02-26T06:07:33.966Z,102299.24
2019-02-26T06:10:03.447Z,102307.48
2019-02-26T06:12:35.578Z,102307.98
2019-02-26T06:15:07.918Z,102301.37
2019-02-26T06:17:40.530Z,102317.99
2019-02-26T06:20:23.556Z,102324.53
2019-02-26T06:22:53.276Z,102322.73
2019-02-26T06:25:24.441Z,102318.42
2019-02-26T06:27:54.488Z,102311.91
2019-02-26T06:30:24.299Z,102306.78
2019-02-26T06:32:54.022Z,102300.77
2019-02-26T06:35:23.790Z,102294.13
2019-02-26T06:37:53.561Z,102300.59
2019-02-26T06:40:23.299Z,102299.70
2019-02-26T06:42:53.088Z,102306.67
2019-02-26T06:45:22.818Z,102309.30
2019-02-26T06:47:54.626Z,102315.84
2019-02-26T06:50:24.033Z,102321.08
2019-02-26T06:52:53.825Z,102326.41
2019-02-26T06:55:23.554Z,102313.86
2019-02-26T06:57:55.180Z,102309.05
2019-02-26T07:00:27.015Z,102312.94
2019-02-26T07:02:56.551Z,102311.63
2019-02-26T07:05:26.283Z,102313.33
2019-02-26T07:07:57.142Z,102322.49
2019-02-26T07:10:29.566Z,102330.92
2019-02-26T07:12:59.047Z,102339.27
2019-02-26T07:15:29.453Z,102344.05
2019-02-26T07:18:02.197Z,102347.63
2019-02-26T07:20:34.061Z,102347.69
2019-02-26T07:23:03.913Z,102337.68
2019-02-26T07:25:36.294Z,102338.49
2019-02-26T07:28:05.211Z,102340.69
2019-02-26T07:30:37.422Z,102350.31
2019-02-26T07:33:08.154Z,102338.03
2019-02-26T07:35:39.707Z,102338.95
2019-02-26T07:38:09.441Z,102342.42
2019-02-26T07:40:40.452Z,102353.53
2019-02-26T07:43:14.397Z,102351.77
2019-02-26T07:45:41.942Z,102356.19
2019-02-26T07:48:16.126Z,102350.06
2019-02-26T07:50:45.729Z,102361.85
2019-02-26T07:53:17.183Z,102359.70
2019-02-26T07:55:49.161Z,102352.75
2019-02-26T07:58:18.961Z,102344.05
2019-02-26T08:00:49.850Z,102354.53
2019-02-26T08:03:23.753Z,102351.91
2019-02-26T08:05:51.999Z,102347.20
2019-02-26T08:08:21.779Z,102359.91
2019-02-26T08:10:53.137Z,102342.31
2019-02-26T08:13:24.392Z,102317.50
2019-02-26T08:15:55.153Z,102302.27
2019-02-26T08:18:26.008Z,102315.66
2019-02-26T08:20:57.951Z,102315.59
2019-02-26T08:23:27.306Z,102327.42
2019-02-26T08:25:59.583Z,102337.88
2019-02-26T08:28:28.548Z,102328.86
2019-02-26T08:30:58.319Z,102333.70
2019-02-26T08:33:28.165Z,102331.13
2019-02-26T08:35:57.966Z,102334.13
2019-02-26T08:38:29.994Z,102330.30
2019-02-26T08:40:59.334Z,102342.18
2019-02-26T08:43:29.407Z,102338.64
2019-02-26T08:45:59.176Z,102341.73
2019-02-26T08:48:29.005Z,102345.81
2019-02-26T08:51:03.063Z,102341.33
2019-02-26T08:53:31.603Z,102339.84
2019-02-26T08:56:03.968Z,102346.93
2019-02-26T08:58:33.007Z,102346.02
2019-02-26T09:01:02.777Z,102368.02
2019-02-26T09:03:40.325Z,102366.14
2019-02-26T09:06:12.806Z,102349.64
2019-02-26T09:08:37.760Z,102345.47
2019-02-26T09:11:10.810Z,102340.70
2019-02-26T09:13:43.790Z,102346.53
2019-02-26T09:16:12.752Z,102356.20
2019-02-26T09:18:42.545Z,102363.67
2019-02-26T09:21:13.505Z,102367.75
2019-02-26T09:23:47.440Z,102367.72
2019-02-26T09:26:15.296Z,102354.36
2019-02-26T09:28:50.049Z,102360.76
2019-02-26T09:31:19.926Z,102361.17
2019-02-26T09:33:49.834Z,102363.78
2019-02-26T09:36:23.130Z,102358.91
2019-02-26T09:38:51.503Z,102358.50
2019-02-26T09:41:21.583Z,102359.59
2019-02-26T09:43:51.372Z,102356.36
2019-02-26T09:46:21.140Z,102355.58
2019-02-26T09:48:50.904Z,102356.89
2019-02-26T09:51:20.666Z,102360.54
2019-02-26T09:53:52.584Z,102360.83
2019-02-26T09:56:23.373Z,102356.28
2019-02-26T09:58:53.174Z,102345.02
2019-02-26T10:01:24.664Z,102355.06
2019-02-26T10:03:56.000Z,102353.16
2019-02-26T10:06:25.924Z,102357.34
2019-02-26T10:08:56.170Z,102352.84
2019-02-26T10:11:28.058Z,102355.50
2019-02-26T10:13:58.076Z,102354.31
2019-02-26T10:16:28.703Z,102371.14
2019-02-26T10:18:59.658Z,102364.28
2019-02-26T10:21:29.425Z,102364.80
2019-02-26T10:23:59.921Z,102367.82
2019-02-26T10:26:31.335Z,102367.17
2019-02-26T10:29:04.439Z,102374.71
2019-02-26T10:31:33.632Z,102374.75
2019-02-26T10:34:07.908Z,102375.83
2019-02-26T10:36:39.016Z,102368.36
2019-02-26T10:39:08.281Z,102369.81
2019-02-26T10:41:39.886Z,102364.78
2019-02-26T10:44:09.772Z,102363.53
2019-02-26T10:46:41.952Z,102358.73
2019-02-26T10:49:12.451Z,102363.77
2019-02-26T10:51:43.059Z,102349.45
2019-02-26T10:54:17.662Z,102355.08
2019-02-26T10:56:44.942Z,102347.57
2019-02-26T10:59:15.892Z,102348.51
2019-02-26T11:01:47.557Z,102364.89
2019-02-26T11:04:18.134Z,102362.20
2019-02-26T11:06:48.015Z,102355.33
2019-02-26T11:09:21.269Z,102361.55
2019-02-26T11:11:49.291Z,102358.09
2019-02-26T11:14:19.513Z,102356.83
2019-02-26T11:16:49.331Z,102348.34
2019-02-26T11:19:19.131Z,102336.00
2019-02-26T11:21:50.675Z,102334.75
2019-02-26T11:24:20.387Z,102338.37
2019-02-26T11:26:50.155Z,102336.27
2019-02-26T11:29:19.908Z,102338.44
2019-02-26T11:31:49.828Z,102337.59
2019-02-26T11:34:19.582Z,102333.62
2019-02-26T11:36:49.407Z,102327.52
2019-02-26T11:39:19.137Z,102325.36
2019-02-26T11:41:53.110Z,102333.38
2019-02-26T11:44:22.648Z,102328.94
2019-02-26T11:46:53.844Z,102328.55
2019-02-26T11:49:23.333Z,102328.10
2019-02-26T11:51:53.124Z,102328.98
2019-02-26T11:54:22.889Z,102324.16
2019-02-26T11:56:52.705Z,102325.52
2019-02-26T11:59:22.479Z,102331.20
2019-02-26T12:01:54.029Z,102333.83
2019-02-26T12:04:23.835Z,102336.94
2019-02-26T12:06:55.732Z,102328.66
2019-02-26T12:09:25.080Z,102320.34
2019-02-26T12:11:56.025Z,102320.82
2019-02-26T12:14:26.345Z,102309.39
2019-02-26T12:16:56.140Z,102317.75
2019-02-26T12:19:28.198Z,102308.95
2019-02-26T12:22:00.788Z,102301.48
2019-02-26T12:24:31.284Z,102307.20
2019-02-26T12:27:00.566Z,102304.16
2019-02-26T12:29:30.335Z,102307.19
2019-02-26T12:32:01.301Z,102296.67
2019-02-26T12:34:31.609Z,102303.27
2019-02-26T12:37:02.651Z,102301.05
2019-02-26T12:39:32.930Z,102292.26
2019-02-26T12:42:02.815Z,102293.58
2019-02-26T12:44:34.774Z,102297.53
2019-02-26T12:47:04.154Z,102283.04
2019-02-26T12:49:36.502Z,102272.97
2019-02-26T12:52:05.383Z,102271.63
2019-02-26T12:54:37.769Z,102264.58
2019-02-26T12:57:06.739Z,102258.88
2019-02-26T12:59:36.522Z,102245.26
2019-02-26T13:02:09.328Z,102251.86
2019-02-26T13:04:40.879Z,102255.36
2019-02-26T13:07:09.485Z,102261.09
2019-02-26T13:09:46.868Z,102258.02
2019-02-26T13:12:12.461Z,102255.82
2019-02-26T13:14:42.541Z,102261.95
2019-02-26T13:17:13.974Z,102251.84
2019-02-26T13:19:43.814Z,102246.57
2019-02-26T13:22:17.450Z,102247.47
2019-02-26T13:24:45.075Z,102251.84
2019-02-26T13:27:15.080Z,102249.66
2019-02-26T13:29:53.586Z,102253.60
2019-02-26T13:32:17.549Z,102259.72
2019-02-26T13:34:47.855Z,102264.08
2019-02-26T13:37:17.650Z,102254.45
2019-02-26T13:39:47.421Z,102257.94
2019-02-26T13:42:19.297Z,102258.83
2019-02-26T13:44:48.737Z,102268.06
2019-02-26T13:47:18.582Z,102275.98
2019-02-26T13:49:48.346Z,102269.86
2019-02-26T13:52:18.148Z,102272.06
2019-02-26T13:54:47.909Z,102275.57
2019-02-26T13:57:17.678Z,102282.61
2019-02-26T13:59:47.668Z,102274.69
2019-02-26T14:02:17.399Z,102270.73
2019-02-26T14:04:47.643Z,102275.13
2019-02-26T14:07:17.380Z,102280.83
2019-02-26T14:09:47.182Z,102277.78
2019-02-26T14:12:17.105Z,102276.92
2019-02-26T14:14:46.932Z,102289.66
2019-02-26T14:17:16.642Z,102276.47
2019-02-26T14:19:46.413Z,102277.34
2019-02-26T14:22:16.173Z,102287.46
2019-02-26T14:24:45.981Z,102290.51
2019-02-26T14:27:15.758Z,102301.05
2019-02-26T14:29:45.553Z,102315.53
2019-02-26T14:32:15.318Z,102306.74
2019-02-26T14:34:45.276Z,102312.44
2019-02-26T14:37:15.044Z,102310.22
2019-02-26T14:39:44.780Z,102311.09
2019-02-26T14:42:14.572Z,102316.36
2019-02-26T14:44:44.310Z,102312.39
2019-02-26T14:47:14.088Z,102318.53
2019-02-26T14:49:43.868Z,102311.94
2019-02-26T14:52:13.668Z,102322.90
2019-02-26T14:54:43.447Z,102318.95
2019-02-26T14:57:13.487Z,102317.16
2019-02-26T14:59:43.250Z,102312.35
2019-02-26T15:02:13.059Z,102318.05
2019-02-26T15:04:42.845Z,102319.33
2019-02-26T15:07:12.583Z,102318.88
2019-02-26T15:09:42.371Z,102311.83
2019-02-26T15:12:12.108Z,102314.45
2019-02-26T15:14:41.855Z,102309.15
2019-02-26T15:17:11.833Z,102316.16
2019-02-26T15:19:50.276Z,102310.03
2019-02-26T15:22:14.835Z,102313.51
2019-02-26T15:24:46.236Z,102322.27
2019-02-26T15:27:15.969Z,102316.55
2019-02-26T15:29:45.739Z,102320.94
2019-02-26T15:32:15.502Z,102323.53
2019-02-26T15:34:45.240Z,102317.39
2019-02-26T15:37:15.043Z,102309.91
2019-02-26T15:39:44.776Z,102305.07
2019-02-26T15:42:14.720Z,102304.20
2019-02-26T15:44:44.487Z,102305.07
2019-02-26T15:47:14.246Z,102308.98
2019-02-26T15:49:44.039Z,102312.89
2019-02-26T15:52:13.777Z,102315.52
2019-02-26T15:54:43.538Z,102310.66
2019-02-26T15:57:13.301Z,102318.13
2019-02-26T15:59:43.031Z,102322.91
2019-02-26T16:02:14.376Z,102330.34
2019-02-26T16:04:44.277Z,102332.06
2019-02-26T16:07:14.073Z,102333.34
2019-02-26T16:09:43.851Z,102333.72
2019-02-26T16:12:13.620Z,102338.55
2019-02-26T16:14:43.388Z,102342.02
2019-02-26T16:17:13.113Z,102340.19
2019-02-26T16:19:43.691Z,102344.05
2019-02-26T16:22:13.626Z,102345.24
2019-02-26T16:24:43.411Z,102348.17
2019-02-26T16:27:13.145Z,102348.53
2019-02-26T16:29:42.931Z,102343.66
2019-02-26T16:32:12.668Z,102340.95
2019-02-26T16:34:42.435Z,102342.22
2019-02-26T16:37:12.356Z,102347.39
2019-02-26T16:39:42.273Z,102350.35
2019-02-26T16:42:12.318Z,102355.58
2019-02-26T16:44:42.107Z,102359.88
2019-02-26T16:47:12.606Z,102354.52
2019-02-26T16:49:43.377Z,102357.86
2019-02-26T16:52:13.176Z,102359.09
2019-02-26T16:54:42.951Z,102358.19
2019-02-26T16:57:12.714Z,102358.56
2019-02-26T16:59:42.480Z,102363.30
2019-02-26T17:02:12.209Z,102365.86
2019-02-26T17:04:42.014Z,102368.03
2019-02-26T17:07:11.739Z,102368.48
2019-02-26T17:09:41.799Z,102364.97
2019-02-26T17:12:11.574Z,102378.06
2019-02-26T17:14:41.381Z,102375.32
2019-02-26T17:17:11.147Z,102380.05
2019-02-26T17:19:40.916Z,102382.15
2019-02-26T17:22:10.679Z,102384.28
2019-02-26T17:24:40.416Z,102388.64
2019-02-26T17:27:10.392Z,102389.83
2019-02-26T17:29:40.130Z,102395.13
2019-02-26T17:32:09.899Z,102393.72
2019-02-26T17:34:39.684Z,102391.89
2019-02-26T17:37:09.465Z,102394.87
2019-02-26T17:39:39.705Z,102393.13
2019-02-26T17:42:09.497Z,102393.91
2019-02-26T17:44:39.263Z,102390.80
2019-02-26T17:47:10.509Z,102398.23
2019-02-26T17:49:40.290Z,102394.20
2019-02-26T17:52:10.058Z,102395.06
2019-02-26T17:54:39.830Z,102396.30
2019-02-26T17:57:09.576Z,102406.24
2019-02-26T18:03:39.273Z,102409.22
2019-02-26T19:08:39.157Z,102430.21
2019-02-26T19:11:07.182Z,102436.08
2019-02-26T19:13:37.397Z,102428.23
2019-02-26T19:16:07.507Z,102424.70
2019-02-26T19:18:38.552Z,102422.45
2019-02-26T19:21:08.965Z,102424.98
2019-02-26T19:23:39.210Z,102433.29
2019-02-26T19:26:13.562Z,102427.50
2019-02-26T19:28:41.535Z,102422.19
2019-02-26T19:31:11.919Z,102415.17
2019-02-26T19:33:42.279Z,102414.33
2019-02-26T19:36:13.626Z,102420.83
2019-02-26T19:38:44.464Z,102420.31
2019-02-26T19:41:17.073Z,102423.63
2019-02-26T19:43:53.286Z,102418.50
2019-02-26T19:46:52.256Z,102423.63
2019-02-26T19:49:30.487Z,102417.93
2019-02-26T19:52:11.869Z,102416.16
2019-02-26T19:55:30.724Z,102407.09
2019-02-26T19:58:06.799Z,102400.70
2019-02-26T20:00:40.064Z,102407.53
2019-02-26T20:03:16.447Z,102404.77
2019-02-26T20:05:48.742Z,102402.95
2019-02-26T20:11:22.364Z,102419.41
2019-02-26T20:14:11.363Z,102407.98
2019-02-26T20:16:44.262Z,102401.03
2019-02-26T20:19:31.795Z,102402.65
2019-02-26T20:22:04.863Z,102410.48
2019-02-26T20:25:16.586Z,102404.27
2019-02-26T20:27:13.084Z,102405.89
2019-02-26T20:29:57.352Z,102415.45
2019-02-26T20:36:28.386Z,102414.62
2019-02-26T20:39:13.726Z,102418.11
2019-02-26T20:41:56.373Z,102416.96
2019-02-26T20:44:45.258Z,102420.78
2019-02-26T20:47:31.297Z,102421.41
2019-02-26T20:50:10.052Z,102421.41
2019-02-26T20:56:31.586Z,102421.93
2019-02-26T21:05:19.987Z,102429.93
2019-02-26T21:07:50.860Z,102431.48
2019-02-26T21:10:29.416Z,102433.94
2019-02-26T21:13:26.945Z,102434.69
2019-02-26T21:16:14.925Z,102431.03
2019-02-26T21:18:47.640Z,102437.84
2019-02-26T21:21:48.918Z,102443.02
2019-02-26T21:24:27.376Z,102442.92
2019-02-26T21:27:26.634Z,102442.92
2019-02-26T21:30:00.912Z,102440.15
2019-02-26T21:33:15.799Z,102450.16
2019-02-26T21:35:58.661Z,102442.27
2019-02-26T21:38:53.771Z,102443.17
2019-02-26T21:51:02.331Z,102451.71
2019-02-26T22:35:04.290Z,102456.95
2019-02-26T22:37:34.041Z,102460.22
2019-02-26T22:40:03.905Z,102463.59
2019-02-26T22:42:34.638Z,102452.92
2019-02-26T22:45:05.407Z,102453.51
2019-02-26T22:47:40.235Z,102446.20
2019-02-26T22:50:09.169Z,102448.64
2019-02-26T22:52:38.959Z,102450.47
2019-02-26T22:55:10.615Z,102445.45
2019-02-26T22:57:40.413Z,102450.06
2019-02-26T23:00:20.824Z,102456.38
2019-02-26T23:02:50.621Z,102454.98
2019-02-26T23:05:20.358Z,102453.05
2019-02-26T23:07:50.170Z,102451.68
2019-02-26T23:10:19.898Z,102446.41
2019-02-26T23:12:49.690Z,102448.96
2019-02-26T23:15:19.431Z,102443.06
2019-02-26T23:17:49.308Z,102451.13
2019-02-26T23:20:19.081Z,102447.31
2019-02-26T23:22:49.485Z,102446.55
2019-02-26T23:25:19.253Z,102448.52
2019-02-26T23:27:49.364Z,102442.56
2019-02-26T23:30:19.305Z,102438.33
2019-02-26T23:32:49.045Z,102444.75
2019-02-26T23:35:18.898Z,102448.66
2019-02-26T23:37:48.630Z,102451.42
2019-02-26T23:40:18.402Z,102450.45
2019-02-26T23:42:48.191Z,102449.77
2019-02-26T23:45:18.000Z,102443.27
2019-02-26T23:47:47.767Z,102442.29
2019-02-26T23:50:17.576Z,102439.21
2019-02-26T23:52:47.348Z,102432.52
2019-02-26T23:55:17.120Z,102441.41
2019-02-26T23:57:46.916Z,102438.68
